Nearby METAR Reports

 

EIDW - Dublin Airport, Ireland
Distance from station: NE 54mi, 87km
Updated: 20/02/2018 11:00
Few Clouds
Few Clouds
 Wind from NNW
Wind: NNW 24 km/h
Temperature: 7°C
Wind Chill: 3°C
Dew Point: 3°C
Humidity: 76%
Barometer: 1028 hPa
Clouds: Few Clouds
Visibility: 10 km
Cloud details: Few Clouds 366 m
2018/02/20 11:00 EIDW 201100Z 33013KT 9999 FEW012 07/03 Q1028 NOSIG
EINN - Shannon Airport, Ireland
Distance from station: W 73mi, 117km
Updated: 20/02/2018 11:00
Few Clouds
Few Clouds
 Wind from NW
Wind: NW 11 km/h
Temperature: 8°C
Wind Chill: 6°C
Dew Point: 5°C
Humidity: 82%
Barometer: 1031 hPa
Clouds: Few Clouds
Visibility: 10 km
Cloud details: Few Clouds 518 m
2018/02/20 11:00 EINN 201100Z 32006KT 9999 FEW017 08/05 Q1031 NOSIG
 
EICK - Cork Arpt/Corcai, Ireland
Distance from station: SW 87mi, 141km
Updated: 20/02/2018 11:00
Partly cloudy
Partly cloudy
 Wind from NNW
Wind: NNW 17 km/h
Temperature: 7°C
Wind Chill: 4°C
Dew Point: 4°C
Humidity: 81%
Barometer: 1030 hPa
Clouds: Partly cloudy
Visibility: 10 km
Cloud details: Few Clouds 853 m
Partly cloudy 7620 m
2018/02/20 11:00 EICK 201100Z 33009KT 9999 FEW028 SCT250 07/04 Q1030 NOSIG
EIKN - Connaught Apt, Ireland
Distance from station: NW 100mi, 161km
Updated: 20/02/2018 11:00
Partly cloudy
Partly cloudy
 Wind from WNW
Wind: WNW 11 km/h
Temperature: 6°C
Wind Chill: 4°C
Dew Point: 3°C
Humidity: 81%
Barometer: 1029 hPa
Clouds: Partly cloudy
Visibility: 10 km
Cloud details: Partly cloudy 823 m
Partly cloudy 6096 m
2018/02/20 11:00 EIKN 201100Z 29006KT 9999 SCT027 SCT200 06/03 Q1029 NOSIG
 
EGOV - Valley Raf, United Kingdom
Distance from station: ENE 114mi, 183km
Updated: 20/02/2018 10:50
Clear
Clear
 Wind from NNW
Wind: NNW 30 km/h
Temperature: 8°C
Wind Chill: 4°C
Dew Point: 4°C
Humidity: 76%
Barometer: 1026 hPa
Summary: Clear
Visibility: greater than 10 km
2018/02/20 10:50 EGOV 201050Z 34016KT CAVOK 08/04 Q1026 BLU NOSIG
EGAA - Belfast/Aldergro, United Kingdom
Distance from station: NNE 130mi, 209km
Updated: 20/02/2018 11:20
Partly cloudy
Partly cloudy
 Wind from NW
Wind: NW 13 km/h
Temperature: 8°C
Wind Chill: 6°C
Dew Point: 5°C
Humidity: 82%
Barometer: 1028 hPa
Clouds: Partly cloudy
Visibility: 10 km
Cloud details: Partly cloudy 671 m
2018/02/20 11:20 EGAA 201120Z 32007KT 9999 SCT022 08/05 Q1028
 
EGAC - Belfast Harbour, United Kingdom
Distance from station: NNE 134mi, 215km
Updated: 20/02/2018 11:20
Clear
Clear
 Wind from NW
Wind: NW 17 km/h
Temperature: 8°C
Wind Chill: 5°C
Dew Point: 4°C
Humidity: 76%
Barometer: 1027 hPa
Clouds: Clear
Visibility: 10 km
2018/02/20 11:20 EGAC 201120Z AUTO 31009KT 280V360 9999 NCD 08/04 Q1027
EGNS - Isle Of Man/Rona, United Kingdom
Distance from station: NE 135mi, 218km
Updated: 20/02/2018 11:20
Few Clouds
Few Clouds
 Wind from NNW
Wind: NNW 37 km/h
Temperature: 9°C
Wind Chill: 4°C
Dew Point: 4°C
Humidity: 71%
Barometer: 1026 hPa
Clouds: Few Clouds
Visibility: 10 km
Cloud details: Few Clouds 457 m
2018/02/20 11:20 EGNS 201120Z 34020KT 300V020 9999 FEW015 09/04 Q1026 NOSIG